createdAt,value
2023-01-29T00:00:15.406Z,14.50
2023-01-29T00:02:44.257Z,10.85
2023-01-29T00:05:26.903Z,14.85
2023-01-29T00:07:56.943Z,12.02
2023-01-29T00:10:26.231Z,10.23
2023-01-29T00:12:56.560Z,11.68
2023-01-29T00:15:25.115Z,11.73
2023-01-29T00:17:53.952Z,10.23
2023-01-29T00:20:22.488Z,10.32
2023-01-29T00:22:50.972Z,9.93
2023-01-29T00:25:19.435Z,10.10
2023-01-29T00:27:48.004Z,9.82
2023-01-29T00:30:19.797Z,10.05
2023-01-29T00:32:48.757Z,11.75
2023-01-29T00:35:17.548Z,11.95
2023-01-29T00:37:46.416Z,10.10
2023-01-29T00:40:15.649Z,12.38
2023-01-29T00:43:03.687Z,13.30
2023-01-29T00:45:33.544Z,10.38
2023-01-29T00:48:02.092Z,12.52
2023-01-29T00:50:31.233Z,10.50
2023-01-29T00:53:00.232Z,8.05
2023-01-29T00:55:28.814Z,9.85
2023-01-29T00:57:57.592Z,9.80
2023-01-29T01:00:26.291Z,9.23
2023-01-29T01:03:08.001Z,11.32
2023-01-29T01:05:36.957Z,11.07
2023-01-29T01:08:38.784Z,9.73
2023-01-29T01:11:08.532Z,11.88
2023-01-29T01:13:37.071Z,10.38
2023-01-29T01:16:14.788Z,10.57
2023-01-29T01:18:44.945Z,10.32
2023-01-29T01:21:13.671Z,8.82
2023-01-29T01:23:42.032Z,9.57
2023-01-29T01:26:11.809Z,9.35
2023-01-29T01:28:40.451Z,9.52
2023-01-29T01:31:13.385Z,10.40
2023-01-29T01:33:42.541Z,12.45
2023-01-29T01:36:13.963Z,9.35
2023-01-29T01:38:45.476Z,11.80
2023-01-29T01:41:15.659Z,13.70
2023-01-29T01:43:51.305Z,10.43
2023-01-29T01:46:19.830Z,9.65
2023-01-29T01:48:52.311Z,10.25
2023-01-29T01:51:23.009Z,10.20
2023-01-29T01:53:56.295Z,9.88
2023-01-29T01:56:28.572Z,9.10
2023-01-29T01:58:59.558Z,10.15
2023-01-29T02:01:28.958Z,8.18
2023-01-29T02:04:22.172Z,10.50
2023-01-29T02:07:11.092Z,9.43
2023-01-29T02:09:43.287Z,11.43
2023-01-29T02:12:14.447Z,11.30
2023-01-29T02:14:44.514Z,13.48
2023-01-29T02:17:16.653Z,12.15
2023-01-29T02:19:50.829Z,11.20
2023-01-29T02:22:43.135Z,11.18
2023-01-29T02:25:36.848Z,12.32
2023-01-29T02:28:17.090Z,13.27
2023-01-29T02:30:53.494Z,10.00
2023-01-29T02:33:32.567Z,11.40
2023-01-29T02:36:10.907Z,10.38
2023-01-29T02:38:46.475Z,10.90
2023-01-29T02:41:22.278Z,11.20
2023-01-29T02:43:58.031Z,10.70
2023-01-29T02:46:33.484Z,13.55
2023-01-29T02:49:12.512Z,9.00
2023-01-29T02:51:45.583Z,10.70
2023-01-29T02:54:21.448Z,10.60
2023-01-29T02:56:55.392Z,9.48
2023-01-29T02:59:29.868Z,12.02
2023-01-29T03:02:02.821Z,10.43
2023-01-29T03:04:38.578Z,12.73
2023-01-29T03:07:22.554Z,13.90
2023-01-29T03:09:53.843Z,10.27
2023-01-29T03:12:33.797Z,11.07
2023-01-29T03:15:12.598Z,10.90
2023-01-29T03:17:48.103Z,9.65
2023-01-29T03:20:20.711Z,11.43
2023-01-29T03:22:53.882Z,11.07
2023-01-29T03:25:41.554Z,9.63
2023-01-29T03:28:30.884Z,12.00
2023-01-29T03:31:23.233Z,11.85
2023-01-29T03:34:04.136Z,8.43
2023-01-29T03:36:39.806Z,10.13
2023-01-29T03:39:11.403Z,8.48
2023-01-29T03:41:46.228Z,8.23
2023-01-29T03:44:18.764Z,9.25
2023-01-29T03:46:56.483Z,9.15
2023-01-29T03:49:33.355Z,9.57
2023-01-29T03:52:06.648Z,9.05
2023-01-29T03:54:45.651Z,11.15
2023-01-29T03:57:18.275Z,10.43
2023-01-29T03:59:55.731Z,9.40
2023-01-29T04:02:52.067Z,9.65
2023-01-29T04:05:23.684Z,9.27
2023-01-29T04:08:13.841Z,8.52
2023-01-29T04:10:46.436Z,10.00
2023-01-29T04:13:17.070Z,11.73
2023-01-29T04:15:51.008Z,7.07
2023-01-29T04:18:27.103Z,9.00
2023-01-29T04:21:08.449Z,10.18
2023-01-29T04:23:37.448Z,7.88
2023-01-29T04:26:26.001Z,8.18
2023-01-29T04:29:08.443Z,9.35
2023-01-29T04:31:47.676Z,7.97
2023-01-29T04:34:27.022Z,7.97
2023-01-29T04:37:07.627Z,8.15
2023-01-29T04:39:44.735Z,6.97
2023-01-29T04:42:21.565Z,7.40
2023-01-29T04:44:56.715Z,7.47
2023-01-29T04:47:34.235Z,6.70
2023-01-29T04:50:15.173Z,7.13
2023-01-29T04:52:52.682Z,8.32
2023-01-29T04:55:28.707Z,7.82
2023-01-29T04:58:07.233Z,8.48
2023-01-29T05:00:40.595Z,10.50
2023-01-29T05:03:11.044Z,10.48
2023-01-29T05:05:44.701Z,8.05
2023-01-29T05:08:16.834Z,7.40
2023-01-29T05:10:46.884Z,6.90
2023-01-29T05:13:16.959Z,9.82
2023-01-29T05:15:50.591Z,9.02
2023-01-29T05:18:19.132Z,9.15
2023-01-29T05:20:49.595Z,9.20
2023-01-29T05:23:18.776Z,8.95
2023-01-29T05:25:47.884Z,9.05
2023-01-29T05:28:16.633Z,10.82
2023-01-29T05:30:47.096Z,11.10
2023-01-29T05:33:18.365Z,7.28
2023-01-29T05:35:48.737Z,10.00
2023-01-29T05:38:17.642Z,8.30
2023-01-29T05:40:45.977Z,9.23
2023-01-29T05:43:17.694Z,10.80
2023-01-29T05:45:53.744Z,11.05
2023-01-29T05:48:22.360Z,8.80
2023-01-29T05:50:52.417Z,8.65
2023-01-29T05:53:20.950Z,8.02
2023-01-29T05:55:49.559Z,8.10
2023-01-29T05:58:19.598Z,10.07
2023-01-29T06:00:47.976Z,9.40
2023-01-29T06:03:16.807Z,10.90
2023-01-29T06:05:45.165Z,9.20
2023-01-29T06:08:15.537Z,8.85
2023-01-29T06:10:43.982Z,9.82
2023-01-29T06:13:12.325Z,8.23
2023-01-29T06:15:41.052Z,10.05
2023-01-29T06:18:09.382Z,11.90
2023-01-29T06:20:38.254Z,14.50
2023-01-29T06:23:06.625Z,16.08
2023-01-29T06:25:36.243Z,14.25
2023-01-29T06:28:04.827Z,15.43
2023-01-29T06:30:33.058Z,11.02
2023-01-29T06:33:02.716Z,11.70
2023-01-29T06:35:31.974Z,10.73
2023-01-29T06:38:00.472Z,9.35
2023-01-29T06:40:28.740Z,10.10
2023-01-29T06:42:58.508Z,9.88
2023-01-29T06:45:26.975Z,9.70
2023-01-29T06:47:55.288Z,12.60
2023-01-29T06:50:23.596Z,15.13
2023-01-29T06:52:51.859Z,12.10
2023-01-29T06:55:20.043Z,10.73
2023-01-29T06:57:48.347Z,11.10
2023-01-29T07:00:18.971Z,10.70
2023-01-29T07:02:50.281Z,11.38
2023-01-29T07:05:18.749Z,12.30
2023-01-29T07:07:46.985Z,15.57
2023-01-29T07:10:15.679Z,13.90
2023-01-29T07:12:44.193Z,13.18
2023-01-29T07:15:12.867Z,16.77
2023-01-29T07:17:42.649Z,14.02
2023-01-29T07:20:12.136Z,14.30
2023-01-29T07:22:40.422Z,16.00
2023-01-29T07:25:09.903Z,15.82
2023-01-29T07:27:38.117Z,15.13
2023-01-29T07:30:07.339Z,19.13
2023-01-29T07:32:35.611Z,16.10
2023-01-29T07:35:05.564Z,17.10
2023-01-29T07:37:33.872Z,15.27
2023-01-29T07:40:02.173Z,18.52
2023-01-29T07:42:30.460Z,18.40
2023-01-29T07:44:59.348Z,17.95
2023-01-29T07:47:27.939Z,18.65
2023-01-29T07:49:56.148Z,16.02
2023-01-29T07:52:25.837Z,15.43
2023-01-29T07:54:54.089Z,17.75
2023-01-29T07:57:23.063Z,16.35
2023-01-29T07:59:51.954Z,17.15
2023-01-29T08:02:20.723Z,18.67
2023-01-29T08:04:49.592Z,18.10
2023-01-29T08:07:18.631Z,17.35
2023-01-29T08:09:49.150Z,17.65
2023-01-29T08:16:37.198Z,16.67
2023-01-29T08:19:06.535Z,17.90
2023-01-29T08:21:38.632Z,18.73
2023-01-29T08:24:08.525Z,16.08
2023-01-29T08:26:39.853Z,17.70
2023-01-29T08:29:08.878Z,19.05
2023-01-29T08:31:38.285Z,19.20
2023-01-29T08:34:07.500Z,17.60
2023-01-29T08:36:36.763Z,16.75
2023-01-29T08:39:05.737Z,14.48
2023-01-29T08:41:34.776Z,18.17
2023-01-29T08:44:05.569Z,17.00
2023-01-29T08:46:34.510Z,17.30
2023-01-29T08:49:03.822Z,16.83
2023-01-29T08:51:39.862Z,19.27
2023-01-29T08:54:12.807Z,17.67
2023-01-29T08:56:41.763Z,17.38
2023-01-29T08:59:13.503Z,18.60
2023-01-29T09:01:42.777Z,17.27
2023-01-29T09:04:12.011Z,16.85
2023-01-29T09:06:40.757Z,17.88
2023-01-29T09:09:10.085Z,16.35
2023-01-29T09:11:40.762Z,16.92
2023-01-29T09:14:10.123Z,15.95
2023-01-29T09:16:44.637Z,18.85
2023-01-29T09:19:13.880Z,16.83
2023-01-29T09:21:49.065Z,18.20
2023-01-29T09:24:24.887Z,17.02
2023-01-29T09:26:56.315Z,18.30
2023-01-29T09:29:25.420Z,18.13
2023-01-29T09:31:58.163Z,18.17
2023-01-29T09:34:56.315Z,17.90
2023-01-29T09:37:27.683Z,17.77
2023-01-29T09:39:56.752Z,17.38
2023-01-29T09:42:31.262Z,20.33
2023-01-29T09:49:08.946Z,17.33
2023-01-29T09:54:48.434Z,18.75
2023-01-29T09:57:26.316Z,21.20
2023-01-29T09:59:55.952Z,19.38
2023-01-29T10:02:47.185Z,20.83
2023-01-29T10:05:29.803Z,20.17
2023-01-29T10:08:21.955Z,19.15
2023-01-29T10:11:12.221Z,20.05
2023-01-29T10:18:39.706Z,22.25
2023-01-29T10:21:48.111Z,17.70
2023-01-29T10:24:27.826Z,20.95
2023-01-29T10:26:57.792Z,19.45
2023-01-29T10:29:30.288Z,18.90
2023-01-29T10:32:06.020Z,20.63
2023-01-29T10:35:04.919Z,20.30
2023-01-29T10:38:37.584Z,18.52
2023-01-29T10:44:53.759Z,20.05
2023-01-29T10:47:38.706Z,19.27
2023-01-29T10:53:55.086Z,21.08
2023-01-29T10:56:45.426Z,19.13
2023-01-29T10:59:33.932Z,17.10
2023-01-29T11:02:16.797Z,17.27
2023-01-29T11:04:46.685Z,18.55
2023-01-29T11:07:19.607Z,17.02
2023-01-29T11:10:15.303Z,16.35
2023-01-29T11:12:47.027Z,16.40
2023-01-29T11:15:27.768Z,19.75
2023-01-29T11:18:10.976Z,16.45
2023-01-29T11:20:41.189Z,17.63
2023-01-29T11:23:27.316Z,17.70
2023-01-29T11:26:01.096Z,18.95
2023-01-29T11:28:44.226Z,18.13
2023-01-29T11:31:26.872Z,16.13
2023-01-29T11:34:06.640Z,16.08
2023-01-29T11:48:17.935Z,22.73
2023-01-29T11:50:56.727Z,17.02
2023-01-29T11:53:41.016Z,19.40
2023-01-29T11:56:23.555Z,18.00
2023-01-29T11:58:55.354Z,16.88
2023-01-29T12:01:34.498Z,17.10
2023-01-29T12:04:10.981Z,15.35
2023-01-29T12:06:50.734Z,14.20
2023-01-29T12:09:23.736Z,15.52
2023-01-29T12:12:52.450Z,17.13
2023-01-29T12:15:25.171Z,14.18
2023-01-29T12:26:49.329Z,13.88
2023-01-29T12:29:39.027Z,16.48
2023-01-29T12:32:22.129Z,15.45
2023-01-29T12:34:59.312Z,15.07
2023-01-29T12:37:49.565Z,15.98
2023-01-29T12:40:50.466Z,14.23
2023-01-29T12:43:33.203Z,14.90
2023-01-29T12:46:17.200Z,17.77
2023-01-29T12:48:55.405Z,19.55
2023-01-29T12:51:33.952Z,18.52
2023-01-29T12:54:12.042Z,19.75
2023-01-29T12:57:22.094Z,17.17
2023-01-29T13:00:06.288Z,16.75
2023-01-29T13:02:43.784Z,16.33
2023-01-29T13:05:27.607Z,17.05
2023-01-29T13:08:55.518Z,19.83
2023-01-29T13:11:52.954Z,17.23
2023-01-29T13:14:43.834Z,16.52
2023-01-29T13:17:45.202Z,16.60
2023-01-29T13:21:35.568Z,17.23
2023-01-29T13:24:13.137Z,15.82
2023-01-29T13:26:50.907Z,17.33
2023-01-29T13:29:46.220Z,15.38
2023-01-29T13:37:07.816Z,15.43
2023-01-29T13:41:01.929Z,15.77
2023-01-29T13:43:41.331Z,15.82
2023-01-29T13:46:12.834Z,13.23
2023-01-29T13:48:53.425Z,12.85
2023-01-29T13:51:49.644Z,13.65
2023-01-29T13:54:23.401Z,13.10
2023-01-29T13:57:04.636Z,15.25
2023-01-29T14:00:57.280Z,14.15
2023-01-29T14:04:03.677Z,13.70
2023-01-29T14:06:48.933Z,13.45
2023-01-29T14:09:33.315Z,13.70
2023-01-29T14:12:01.969Z,16.70
2023-01-29T14:15:02.394Z,13.00
2023-01-29T14:17:31.093Z,12.63
2023-01-29T14:20:04.123Z,13.43
2023-01-29T14:22:34.786Z,12.88
2023-01-29T14:25:06.017Z,14.30
2023-01-29T14:27:35.656Z,15.75
2023-01-29T14:30:10.844Z,14.15
2023-01-29T14:32:41.396Z,16.73
2023-01-29T14:35:20.493Z,13.15
2023-01-29T14:37:51.224Z,12.70
2023-01-29T14:40:23.807Z,12.80
2023-01-29T14:42:59.848Z,17.45
2023-01-29T14:45:30.608Z,14.63
2023-01-29T14:48:04.995Z,13.70
2023-01-29T14:51:03.204Z,14.52
2023-01-29T14:53:54.230Z,13.68
2023-01-29T14:56:28.751Z,12.52
2023-01-29T14:59:05.588Z,13.38
2023-01-29T15:01:38.547Z,14.48
2023-01-29T15:04:15.660Z,12.90
2023-01-29T15:06:47.162Z,14.60
2023-01-29T15:09:26.795Z,13.95
2023-01-29T15:12:04.319Z,11.48
2023-01-29T15:14:35.051Z,12.52
2023-01-29T15:17:18.102Z,11.52
2023-01-29T15:19:49.132Z,9.55
2023-01-29T15:22:19.062Z,10.55
2023-01-29T15:25:04.540Z,9.77
2023-01-29T15:27:33.088Z,9.38
2023-01-29T15:30:08.037Z,9.30
2023-01-29T15:32:39.052Z,9.07
2023-01-29T15:35:12.704Z,9.07
2023-01-29T15:37:44.235Z,9.57
2023-01-29T15:40:23.102Z,9.30
2023-01-29T15:42:56.425Z,10.70
2023-01-29T15:45:30.344Z,12.43
2023-01-29T15:48:06.864Z,11.38
2023-01-29T15:50:40.296Z,12.48
2023-01-29T15:53:15.280Z,15.13
2023-01-29T15:55:45.702Z,14.32
2023-01-29T15:58:20.150Z,13.30
2023-01-29T16:00:54.673Z,14.63
2023-01-29T16:03:24.945Z,13.07
2023-01-29T16:05:54.283Z,13.18
2023-01-29T16:08:24.629Z,15.57
2023-01-29T16:10:57.620Z,13.85
2023-01-29T16:13:28.282Z,14.70
2023-01-29T16:15:59.215Z,13.93
2023-01-29T16:18:31.361Z,15.35
2023-01-29T16:21:02.025Z,12.15
2023-01-29T16:23:36.109Z,13.02
2023-01-29T16:26:09.131Z,15.73
2023-01-29T16:28:41.556Z,14.27
2023-01-29T16:31:12.264Z,12.25
2023-01-29T16:33:45.281Z,14.90
2023-01-29T16:36:18.377Z,14.68
2023-01-29T16:38:50.963Z,14.38
2023-01-29T16:41:32.011Z,12.52
2023-01-29T16:44:02.758Z,13.93
2023-01-29T16:46:37.171Z,14.25
2023-01-29T16:49:44.603Z,13.52
2023-01-29T16:52:24.908Z,10.88
2023-01-29T16:54:53.791Z,14.40
2023-01-29T16:57:26.951Z,12.98
2023-01-29T16:59:56.757Z,12.82
2023-01-29T17:02:28.367Z,14.50
2023-01-29T17:05:01.078Z,16.05
2023-01-29T17:07:30.385Z,12.95
2023-01-29T17:10:01.325Z,14.80
2023-01-29T17:12:32.800Z,12.40
2023-01-29T17:15:02.913Z,13.32
2023-01-29T17:17:33.311Z,15.15
2023-01-29T17:20:14.002Z,11.52
2023-01-29T17:22:42.587Z,11.57
2023-01-29T17:25:15.461Z,14.15
2023-01-29T17:27:51.538Z,12.52
2023-01-29T17:30:21.713Z,14.38
2023-01-29T17:32:50.661Z,13.43
2023-01-29T17:35:19.288Z,13.32
2023-01-29T17:37:47.846Z,13.18
2023-01-29T17:40:26.856Z,15.27
2023-01-29T17:42:56.621Z,13.00
2023-01-29T17:45:24.995Z,15.60
2023-01-29T17:47:54.083Z,16.02
2023-01-29T17:50:24.515Z,15.30
2023-01-29T17:52:53.750Z,18.23
2023-01-29T17:55:22.295Z,19.40
2023-01-29T17:57:50.657Z,17.42
2023-01-29T18:00:22.743Z,18.65
2023-01-29T18:02:51.641Z,19.88
2023-01-29T18:05:20.504Z,17.60
2023-01-29T18:07:51.684Z,17.58
2023-01-29T18:10:22.893Z,14.82
2023-01-29T18:12:51.393Z,15.43
2023-01-29T18:15:21.115Z,12.48
2023-01-29T18:17:52.090Z,13.70
2023-01-29T18:20:22.892Z,12.60
2023-01-29T18:22:51.267Z,12.90
2023-01-29T18:25:20.374Z,15.10
2023-01-29T18:27:48.953Z,14.52
2023-01-29T18:30:17.596Z,14.02
2023-01-29T18:32:48.314Z,12.40
2023-01-29T18:35:17.450Z,14.07
2023-01-29T18:37:45.882Z,14.25
2023-01-29T18:40:17.117Z,12.70
2023-01-29T18:42:45.529Z,12.15
2023-01-29T18:45:15.243Z,16.13
2023-01-29T18:47:44.004Z,12.98
2023-01-29T18:50:13.806Z,12.52
2023-01-29T18:52:42.243Z,15.75
2023-01-29T18:55:10.811Z,13.90
2023-01-29T18:58:27.849Z,15.70
2023-01-29T19:00:28.479Z,16.08
2023-01-29T19:02:56.740Z,15.13
2023-01-29T19:05:26.397Z,17.27
2023-01-29T19:07:54.692Z,15.23
2023-01-29T19:10:23.028Z,13.85
2023-01-29T19:12:51.348Z,15.57
2023-01-29T19:15:22.587Z,15.52
2023-01-29T19:17:51.005Z,17.65
2023-01-29T19:20:19.753Z,16.88
2023-01-29T19:22:49.692Z,17.00
2023-01-29T19:25:19.505Z,16.40
2023-01-29T19:27:48.035Z,16.35
2023-01-29T19:30:16.726Z,18.45
2023-01-29T19:32:45.061Z,15.40
2023-01-29T19:35:13.495Z,16.15
2023-01-29T19:37:41.821Z,18.02
2023-01-29T19:40:12.841Z,19.73
2023-01-29T19:42:41.168Z,17.73
2023-01-29T19:45:10.520Z,18.77
2023-01-29T19:47:40.230Z,16.55
2023-01-29T19:50:10.232Z,19.15
2023-01-29T19:52:50.684Z,18.25
2023-01-29T19:55:22.282Z,20.92
2023-01-29T19:57:53.318Z,17.63
2023-01-29T20:00:22.274Z,20.23
2023-01-29T20:02:50.674Z,23.02
2023-01-29T20:05:20.341Z,18.55
2023-01-29T20:07:49.894Z,19.02
2023-01-29T20:10:18.738Z,18.85
2023-01-29T20:12:48.720Z,19.08
2023-01-29T20:15:17.137Z,19.80
2023-01-29T20:17:46.332Z,20.67
2023-01-29T20:20:16.626Z,22.92
2023-01-29T20:22:45.077Z,22.40
2023-01-29T20:25:14.518Z,24.85
2023-01-29T20:27:43.147Z,21.63
2023-01-29T20:30:13.621Z,20.35
2023-01-29T20:32:41.958Z,20.85
2023-01-29T20:35:10.892Z,18.98
2023-01-29T20:37:39.108Z,25.83
2023-01-29T20:40:08.479Z,24.15
2023-01-29T20:42:36.831Z,21.55
2023-01-29T20:45:05.695Z,26.67
2023-01-29T20:47:35.422Z,29.73
2023-01-29T20:50:08.478Z,31.13
2023-01-29T20:52:37.199Z,31.13
2023-01-29T20:55:07.795Z,33.08
2023-01-29T20:57:36.791Z,31.17
2023-01-29T21:00:06.488Z,31.98
2023-01-29T21:02:36.380Z,31.17
2023-01-29T21:05:06.448Z,31.50
2023-01-29T21:07:36.031Z,27.73
2023-01-29T21:10:04.520Z,29.83
2023-01-29T21:12:32.915Z,29.75
2023-01-29T21:15:01.240Z,30.70
2023-01-29T21:17:29.606Z,29.58
2023-01-29T21:19:59.176Z,27.08
2023-01-29T21:22:27.540Z,28.20
2023-01-29T21:24:55.739Z,32.40
2023-01-29T21:27:25.403Z,32.33
2023-01-29T21:29:53.600Z,35.30
2023-01-29T21:32:21.975Z,34.40
2023-01-29T21:34:52.657Z,33.85
2023-01-29T21:37:22.571Z,32.08
2023-01-29T21:39:50.812Z,29.30
2023-01-29T21:42:36.539Z,29.42
2023-01-29T21:45:05.208Z,30.02
2023-01-29T21:47:33.495Z,28.95
2023-01-29T21:50:01.715Z,30.33
2023-01-29T21:52:31.538Z,28.83
2023-01-29T21:54:59.814Z,32.90
2023-01-29T21:57:28.179Z,28.27
2023-01-29T21:59:57.618Z,30.67
2023-01-29T22:02:27.319Z,30.70
2023-01-29T22:05:08.799Z,30.77
2023-01-29T22:07:47.183Z,29.67
2023-01-29T22:10:16.275Z,30.98
2023-01-29T22:12:45.592Z,32.00
2023-01-29T22:15:14.850Z,32.60
2023-01-29T22:17:43.836Z,30.42
2023-01-29T22:20:13.936Z,28.63
2023-01-29T22:22:42.891Z,31.23
2023-01-29T22:25:12.840Z,33.70
2023-01-29T22:27:41.349Z,32.70
2023-01-29T22:30:11.026Z,31.20
2023-01-29T22:32:39.292Z,33.28
2023-01-29T22:35:08.591Z,33.65
2023-01-29T22:37:36.827Z,32.97
2023-01-29T22:40:05.638Z,30.27
2023-01-29T22:42:35.263Z,35.00
2023-01-29T22:45:03.539Z,31.65
2023-01-29T22:47:34.009Z,34.70
2023-01-29T22:50:02.287Z,31.08
2023-01-29T22:52:38.293Z,33.40
2023-01-29T22:55:11.851Z,35.70
2023-01-29T22:57:41.603Z,32.58
2023-01-29T23:00:11.994Z,33.95
2023-01-29T23:02:40.238Z,30.25
2023-01-29T23:05:09.189Z,32.47
2023-01-29T23:07:38.142Z,35.28
2023-01-29T23:10:07.312Z,35.65
2023-01-29T23:12:35.839Z,31.70
2023-01-29T23:15:06.241Z,31.40
2023-01-29T23:17:34.640Z,35.78
2023-01-29T23:20:03.579Z,32.47
2023-01-29T23:22:31.827Z,30.33
2023-01-29T23:25:02.573Z,33.70
2023-01-29T23:27:29.891Z,35.95
2023-01-29T23:29:58.136Z,33.63
2023-01-29T23:32:27.802Z,32.88
2023-01-29T23:34:56.026Z,34.13
2023-01-29T23:37:24.695Z,32.17
2023-01-29T23:39:53.460Z,30.77
2023-01-29T23:42:21.751Z,34.83
2023-01-29T23:44:49.974Z,33.70
2023-01-29T23:47:18.308Z,34.05
2023-01-29T23:49:48.016Z,30.90
2023-01-29T23:52:16.287Z,35.33
2023-01-29T23:54:44.510Z,34.40
2023-01-29T23:57:12.912Z,33.40
2023-01-29T23:59:41.132Z,32.33
